ETD950 HKJK-OMAA
Flight info
| Callsign | ETD950 |
|---|---|
| Flight time | 4h 14m |
| Altitude | 33000 |
| Route | ATUDU1D WAV UP312 MAV UB403 BOMIX B403 RIGAM B400 DAXAM Y414 DEDSO R401 DOLFI P558 SODEX N563 NOBTO |
| Aircraft | B77L/H-SDE1E2E3FGHIJ2J3J4J5M1RWXY/LB1D1 |
Departure
| Time | 2026-05-07 12:38 |
|---|---|
| Airport | Jomo Kenyatta International Airport (HKJK) |
Arrival
| Time | 2026-05-07 16:52 |
|---|---|
| Airport | Zayed International Airport (OMAA) |
| Time | Latitude | Longitude | Altitude | Speed | Heading |
|---|---|---|---|---|---|
| 2026-05-07 12:13 | -1.33312 | 36.91653 | 5335 ft | 0 kts | 143° |
| 2026-05-07 12:31 | -1.33307 | 36.91649 | 5329 ft | 4 kts | 143° |
| 2026-05-07 12:32 | -1.33285 | 36.91633 | 5335 ft | 4 kts | 143° |
| 2026-05-07 12:32 | -1.33264 | 36.91617 | 5335 ft | 2 kts | 143° |
| 2026-05-07 12:32 | -1.33247 | 36.91603 | 5335 ft | 4 kts | 118° |
| 2026-05-07 12:32 | -1.33242 | 36.91589 | 5335 ft | 4 kts | 77° |
| 2026-05-07 12:33 | -1.33264 | 36.91554 | 5335 ft | 0 kts | 54° |
| 2026-05-07 12:35 | -1.33260 | 36.91560 | 5335 ft | 3 kts | 54° |
| 2026-05-07 12:35 | -1.33232 | 36.91596 | 5335 ft | 10 kts | 50° |
| 2026-05-07 12:35 | -1.33168 | 36.91653 | 5334 ft | 15 kts | 38° |
| 2026-05-07 12:36 | -1.33099 | 36.91729 | 5335 ft | 15 kts | 53° |
| 2026-05-07 12:36 | -1.33034 | 36.91808 | 5340 ft | 15 kts | 31° |
| 2026-05-07 12:36 | -1.32943 | 36.91780 | 5344 ft | 15 kts | 324° |
| 2026-05-07 12:36 | -1.32859 | 36.91721 | 5344 ft | 15 kts | 324° |
| 2026-05-07 12:37 | -1.32774 | 36.91666 | 5344 ft | 15 kts | 346° |
| 2026-05-07 12:37 | -1.32688 | 36.91733 | 5340 ft | 23 kts | 53° |
| 2026-05-07 12:37 | -1.32486 | 36.92011 | 5333 ft | 87 kts | 54° |
| 2026-05-07 12:37 | -1.31966 | 36.92721 | 5315 ft | 165 kts | 54° |
| 2026-05-07 12:38 | -1.31170 | 36.93827 | 5451 ft | 217 kts | 55° |
| 2026-05-07 12:38 | -1.30232 | 36.95111 | 6138 ft | 232 kts | 58° |
| 2026-05-07 12:38 | -1.29713 | 36.96629 | 6791 ft | 235 kts | 87° |
| 2026-05-07 12:38 | -1.29607 | 36.98305 | 7142 ft | 253 kts | 87° |
| 2026-05-07 12:39 | -1.29457 | 37.00115 | 7475 ft | 268 kts | 86° |
| 2026-05-07 12:39 | -1.29278 | 37.02015 | 7946 ft | 280 kts | 85° |
| 2026-05-07 12:39 | -1.29080 | 37.03978 | 8584 ft | 286 kts | 85° |
| 2026-05-07 12:39 | -1.28871 | 37.05976 | 9279 ft | 291 kts | 85° |
| 2026-05-07 12:40 | -1.28657 | 37.07976 | 9970 ft | 295 kts | 84° |
| 2026-05-07 12:40 | -1.28434 | 37.10038 | 10531 ft | 304 kts | 84° |
| 2026-05-07 12:40 | -1.28198 | 37.12215 | 10721 ft | 327 kts | 84° |
| 2026-05-07 12:40 | -1.27839 | 37.14524 | 10848 ft | 346 kts | 72° |
| 2026-05-07 12:41 | -1.26609 | 37.16655 | 10990 ft | 366 kts | 47° |
| 2026-05-07 12:41 | -1.24750 | 37.18468 | 11271 ft | 380 kts | 44° |
| 2026-05-07 12:41 | -1.22808 | 37.20307 | 11858 ft | 388 kts | 44° |
| 2026-05-07 12:41 | -1.20836 | 37.22180 | 12569 ft | 391 kts | 44° |
| 2026-05-07 12:42 | -1.18868 | 37.24057 | 13341 ft | 392 kts | 44° |
| 2026-05-07 12:42 | -1.16889 | 37.25953 | 14045 ft | 396 kts | 44° |
| 2026-05-07 12:42 | -1.14916 | 37.27849 | 14622 ft | 400 kts | 44° |
| 2026-05-07 12:42 | -1.12882 | 37.29809 | 15257 ft | 403 kts | 44° |
| 2026-05-07 12:43 | -1.10884 | 37.31740 | 15848 ft | 406 kts | 44° |
| 2026-05-07 12:43 | -1.08839 | 37.33717 | 16447 ft | 409 kts | 44° |
| 2026-05-07 12:43 | -1.06787 | 37.35703 | 17034 ft | 413 kts | 44° |
| 2026-05-07 12:43 | -1.04714 | 37.37709 | 17633 ft | 415 kts | 44° |
| 2026-05-07 12:44 | -1.02630 | 37.39727 | 18192 ft | 419 kts | 44° |
| 2026-05-07 12:44 | -1.00527 | 37.41764 | 18710 ft | 422 kts | 44° |
| 2026-05-07 12:44 | -0.98409 | 37.43815 | 19154 ft | 426 kts | 44° |
| 2026-05-07 12:44 | -0.96272 | 37.45883 | 19623 ft | 429 kts | 44° |
| 2026-05-07 12:45 | -0.94121 | 37.47966 | 20075 ft | 432 kts | 44° |
| 2026-05-07 12:45 | -0.91952 | 37.50066 | 20517 ft | 436 kts | 44° |
| 2026-05-07 12:45 | -0.89764 | 37.52183 | 20931 ft | 440 kts | 44° |
| 2026-05-07 12:45 | -0.87558 | 37.54319 | 21384 ft | 442 kts | 44° |
| 2026-05-07 12:46 | -0.85366 | 37.56441 | 21814 ft | 446 kts | 44° |
| 2026-05-07 12:46 | -0.83133 | 37.58603 | 22239 ft | 448 kts | 44° |
| 2026-05-07 12:46 | -0.80884 | 37.60779 | 22636 ft | 452 kts | 44° |
| 2026-05-07 12:46 | -0.78620 | 37.62971 | 23055 ft | 454 kts | 44° |
| 2026-05-07 12:47 | -0.76337 | 37.65181 | 23436 ft | 458 kts | 44° |
| 2026-05-07 12:47 | -0.74045 | 37.67399 | 23799 ft | 460 kts | 44° |
| 2026-05-07 12:47 | -0.71735 | 37.69635 | 24108 ft | 463 kts | 44° |
| 2026-05-07 12:47 | -0.69411 | 37.71884 | 24423 ft | 466 kts | 44° |
| 2026-05-07 12:48 | -0.67078 | 37.74143 | 24760 ft | 468 kts | 44° |
| 2026-05-07 12:48 | -0.64731 | 37.76414 | 25056 ft | 471 kts | 44° |
| 2026-05-07 12:48 | -0.62371 | 37.78698 | 25376 ft | 473 kts | 44° |
| 2026-05-07 12:48 | -0.59997 | 37.80996 | 25675 ft | 476 kts | 44° |
| 2026-05-07 12:49 | -0.57616 | 37.83300 | 25981 ft | 478 kts | 44° |
| 2026-05-07 12:49 | -0.55219 | 37.85620 | 26294 ft | 480 kts | 44° |
| 2026-05-07 12:49 | -0.52813 | 37.87949 | 26603 ft | 482 kts | 44° |
| 2026-05-07 12:49 | -0.50424 | 37.90261 | 26894 ft | 485 kts | 44° |
| 2026-05-07 12:50 | -0.47996 | 37.92611 | 27156 ft | 487 kts | 44° |
| 2026-05-07 12:50 | -0.45554 | 37.94974 | 27439 ft | 489 kts | 44° |
| 2026-05-07 12:50 | -0.43102 | 37.97346 | 27715 ft | 492 kts | 44° |
| 2026-05-07 12:50 | -0.40640 | 37.99730 | 28008 ft | 494 kts | 44° |
| 2026-05-07 12:51 | -0.38165 | 38.02125 | 28254 ft | 496 kts | 44° |
| 2026-05-07 12:51 | -0.35682 | 38.04528 | 28509 ft | 498 kts | 44° |
| 2026-05-07 12:51 | -0.33186 | 38.06943 | 28767 ft | 500 kts | 44° |
| 2026-05-07 12:51 | -0.30677 | 38.09371 | 29005 ft | 502 kts | 44° |
| 2026-05-07 12:52 | -0.28164 | 38.11803 | 29236 ft | 504 kts | 44° |
| 2026-05-07 12:52 | -0.25641 | 38.14245 | 29475 ft | 506 kts | 44° |
| 2026-05-07 12:52 | -0.23109 | 38.16695 | 29708 ft | 507 kts | 44° |
| 2026-05-07 12:52 | -0.20574 | 38.19149 | 29993 ft | 507 kts | 44° |
| 2026-05-07 12:53 | -0.18041 | 38.21599 | 30265 ft | 507 kts | 44° |
| 2026-05-07 12:53 | -0.15507 | 38.24052 | 30557 ft | 506 kts | 44° |
| 2026-05-07 12:53 | -0.12980 | 38.26498 | 30876 ft | 505 kts | 44° |
| 2026-05-07 12:53 | -0.10487 | 38.28910 | 31197 ft | 504 kts | 44° |
| 2026-05-07 12:54 | -0.07974 | 38.31342 | 31522 ft | 503 kts | 44° |
| 2026-05-07 12:54 | -0.05459 | 38.33776 | 31837 ft | 502 kts | 44° |
| 2026-05-07 12:54 | -0.02954 | 38.36200 | 32148 ft | 501 kts | 44° |
| 2026-05-07 12:54 | -0.00443 | 38.38629 | 32464 ft | 500 kts | 44° |
| 2026-05-07 12:55 | 0.02056 | 38.41048 | 32750 ft | 500 kts | 44° |
| 2026-05-07 12:55 | 0.04535 | 38.43447 | 32797 ft | 503 kts | 44° |
| 2026-05-07 12:55 | 0.09552 | 38.48302 | 32838 ft | 500 kts | 44° |
| 2026-05-07 12:56 | 0.14535 | 38.53124 | 32848 ft | 497 kts | 44° |
| 2026-05-07 12:56 | 0.19499 | 38.57928 | 32847 ft | 496 kts | 44° |
| 2026-05-07 12:57 | 0.24455 | 38.62723 | 32840 ft | 496 kts | 44° |
| 2026-05-07 12:57 | 0.29390 | 38.67499 | 32831 ft | 497 kts | 44° |
| 2026-05-07 12:58 | 0.34360 | 38.72309 | 32832 ft | 498 kts | 44° |
| 2026-05-07 12:58 | 0.39339 | 38.77127 | 32826 ft | 499 kts | 44° |
| 2026-05-07 12:59 | 0.44339 | 38.81966 | 32825 ft | 500 kts | 44° |
| 2026-05-07 12:59 | 0.49340 | 38.86807 | 32823 ft | 501 kts | 44° |
| 2026-05-07 13:00 | 0.54350 | 38.91655 | 32824 ft | 501 kts | 44° |
| 2026-05-07 13:00 | 0.59359 | 38.96503 | 32819 ft | 502 kts | 44° |
| 2026-05-07 13:01 | 0.64372 | 39.01355 | 32818 ft | 501 kts | 44° |
| 2026-05-07 13:01 | 0.69381 | 39.06204 | 32815 ft | 501 kts | 43° |
| 2026-05-07 13:02 | 0.74385 | 39.11047 | 32812 ft | 500 kts | 44° |
| 2026-05-07 13:02 | 0.79385 | 39.15886 | 32814 ft | 500 kts | 44° |
| 2026-05-07 13:03 | 0.84373 | 39.20715 | 32812 ft | 499 kts | 44° |
| 2026-05-07 13:03 | 0.89329 | 39.25513 | 32813 ft | 499 kts | 44° |
| 2026-05-07 13:04 | 0.94309 | 39.30334 | 32812 ft | 498 kts | 43° |
| 2026-05-07 13:04 | 0.99281 | 39.35147 | 32813 ft | 497 kts | 43° |
| 2026-05-07 13:05 | 1.04249 | 39.39957 | 32813 ft | 497 kts | 43° |
| 2026-05-07 13:05 | 1.09215 | 39.44765 | 32816 ft | 497 kts | 43° |
| 2026-05-07 13:06 | 1.14176 | 39.49569 | 32819 ft | 496 kts | 43° |
| 2026-05-07 13:06 | 1.19134 | 39.54370 | 32827 ft | 496 kts | 43° |
| 2026-05-07 13:07 | 1.24096 | 39.59174 | 32824 ft | 496 kts | 43° |
| 2026-05-07 13:07 | 1.29049 | 39.63971 | 32823 ft | 495 kts | 43° |
| 2026-05-07 13:08 | 1.34001 | 39.68767 | 32822 ft | 495 kts | 43° |
| 2026-05-07 13:08 | 1.38915 | 39.73526 | 32825 ft | 495 kts | 43° |
| 2026-05-07 13:09 | 1.43858 | 39.78314 | 32826 ft | 495 kts | 43° |
| 2026-05-07 13:09 | 1.48807 | 39.83108 | 32829 ft | 495 kts | 43° |
| 2026-05-07 13:10 | 1.53749 | 39.87896 | 32826 ft | 495 kts | 43° |
| 2026-05-07 13:10 | 1.58696 | 39.92688 | 32828 ft | 495 kts | 43° |
| 2026-05-07 13:11 | 1.63633 | 39.97472 | 32828 ft | 494 kts | 43° |
| 2026-05-07 13:11 | 1.68574 | 40.02261 | 32833 ft | 494 kts | 43° |
| 2026-05-07 13:12 | 1.73481 | 40.07016 | 32828 ft | 494 kts | 43° |
| 2026-05-07 13:12 | 1.78606 | 40.11601 | 32833 ft | 493 kts | 38° |
| 2026-05-07 13:13 | 1.84026 | 40.15821 | 32831 ft | 493 kts | 37° |
| 2026-05-07 13:13 | 1.89453 | 40.20039 | 32835 ft | 494 kts | 37° |
| 2026-05-07 13:14 | 1.94808 | 40.24296 | 32836 ft | 494 kts | 38° |
| 2026-05-07 13:14 | 2.00177 | 40.28607 | 32841 ft | 494 kts | 38° |
| 2026-05-07 13:15 | 2.05545 | 40.32918 | 32851 ft | 495 kts | 38° |
| 2026-05-07 13:15 | 2.10917 | 40.37229 | 32845 ft | 495 kts | 38° |
| 2026-05-07 13:16 | 2.16260 | 40.41513 | 32845 ft | 494 kts | 38° |
| 2026-05-07 13:16 | 2.21621 | 40.45813 | 32849 ft | 494 kts | 38° |
| 2026-05-07 13:17 | 2.26984 | 40.50114 | 32846 ft | 494 kts | 38° |
| 2026-05-07 13:17 | 2.32351 | 40.54420 | 32854 ft | 494 kts | 38° |
| 2026-05-07 13:18 | 2.36806 | 40.57996 | 32843 ft | 494 kts | 38° |
| 2026-05-07 13:18 | 2.42172 | 40.62312 | 32845 ft | 494 kts | 38° |
| 2026-05-07 13:19 | 2.47504 | 40.66659 | 32846 ft | 495 kts | 38° |
| 2026-05-07 13:19 | 2.52834 | 40.71019 | 32847 ft | 495 kts | 38° |
| 2026-05-07 13:20 | 2.58171 | 40.75380 | 32843 ft | 495 kts | 38° |
| 2026-05-07 13:20 | 2.63508 | 40.79735 | 32844 ft | 495 kts | 38° |
| 2026-05-07 13:21 | 2.68818 | 40.84068 | 32847 ft | 495 kts | 38° |
| 2026-05-07 13:21 | 2.74160 | 40.88428 | 32846 ft | 495 kts | 38° |
| 2026-05-07 13:22 | 2.79498 | 40.92785 | 32848 ft | 495 kts | 38° |
| 2026-05-07 13:22 | 2.84836 | 40.97143 | 32846 ft | 495 kts | 38° |
| 2026-05-07 13:23 | 2.90176 | 41.01502 | 32842 ft | 495 kts | 38° |
| 2026-05-07 13:23 | 2.95473 | 41.05828 | 32839 ft | 494 kts | 38° |
| 2026-05-07 13:24 | 3.00800 | 41.10178 | 32844 ft | 494 kts | 38° |
| 2026-05-07 13:24 | 3.06127 | 41.14530 | 32843 ft | 494 kts | 38° |
| 2026-05-07 13:25 | 3.11450 | 41.18878 | 32848 ft | 494 kts | 38° |
| 2026-05-07 13:25 | 3.16779 | 41.23231 | 32849 ft | 494 kts | 38° |
| 2026-05-07 13:26 | 3.22098 | 41.27578 | 32848 ft | 493 kts | 39° |
| 2026-05-07 13:26 | 3.27414 | 41.31922 | 32844 ft | 493 kts | 38° |
| 2026-05-07 13:27 | 3.32716 | 41.36256 | 32841 ft | 492 kts | 38° |
| 2026-05-07 13:27 | 3.38022 | 41.40594 | 32842 ft | 492 kts | 38° |
| 2026-05-07 13:28 | 3.43295 | 41.44904 | 32838 ft | 492 kts | 38° |
| 2026-05-07 13:28 | 3.48607 | 41.49248 | 32840 ft | 492 kts | 38° |
| 2026-05-07 13:29 | 3.53909 | 41.53585 | 32841 ft | 492 kts | 38° |
| 2026-05-07 13:29 | 3.59182 | 41.57898 | 32834 ft | 492 kts | 38° |
| 2026-05-07 13:30 | 3.64481 | 41.62233 | 32833 ft | 492 kts | 38° |
| 2026-05-07 13:30 | 3.69788 | 41.66576 | 32826 ft | 492 kts | 38° |
| 2026-05-07 13:31 | 3.75082 | 41.70908 | 32825 ft | 492 kts | 39° |
| 2026-05-07 13:31 | 3.80393 | 41.75255 | 32819 ft | 492 kts | 39° |
| 2026-05-07 13:32 | 3.85667 | 41.79574 | 32817 ft | 492 kts | 38° |
| 2026-05-07 13:32 | 3.90974 | 41.83920 | 32816 ft | 493 kts | 38° |
| 2026-05-07 13:33 | 3.96117 | 41.88455 | 32815 ft | 493 kts | 45° |
| 2026-05-07 13:33 | 4.00890 | 41.93405 | 32817 ft | 493 kts | 45° |
| 2026-05-07 13:34 | 4.08039 | 42.00846 | 32809 ft | 494 kts | 45° |
| 2026-05-07 13:35 | 4.12822 | 42.05785 | 32809 ft | 494 kts | 45° |
| 2026-05-07 13:35 | 4.17613 | 42.10719 | 32808 ft | 494 kts | 45° |
| 2026-05-07 13:36 | 4.22378 | 42.15628 | 32805 ft | 494 kts | 45° |
| 2026-05-07 13:36 | 4.27168 | 42.20565 | 32810 ft | 494 kts | 45° |
| 2026-05-07 13:37 | 4.31958 | 42.25503 | 32808 ft | 494 kts | 45° |
| 2026-05-07 13:37 | 4.36743 | 42.30438 | 32811 ft | 494 kts | 45° |
| 2026-05-07 13:38 | 4.41536 | 42.35382 | 32816 ft | 494 kts | 45° |
| 2026-05-07 13:38 | 4.46324 | 42.40322 | 32816 ft | 494 kts | 45° |
| 2026-05-07 13:39 | 4.51109 | 42.45260 | 32827 ft | 494 kts | 45° |
| 2026-05-07 13:39 | 4.55900 | 42.50205 | 32824 ft | 494 kts | 45° |
| 2026-05-07 13:40 | 4.60658 | 42.55116 | 32831 ft | 494 kts | 45° |
| 2026-05-07 13:40 | 4.65445 | 42.60059 | 32830 ft | 494 kts | 45° |
| 2026-05-07 13:41 | 4.70231 | 42.65001 | 32830 ft | 494 kts | 45° |
| 2026-05-07 13:41 | 4.75026 | 42.69954 | 32833 ft | 494 kts | 45° |
| 2026-05-07 13:42 | 4.79816 | 42.74903 | 32829 ft | 494 kts | 45° |
| 2026-05-07 13:42 | 4.84605 | 42.79852 | 32836 ft | 495 kts | 45° |
| 2026-05-07 13:43 | 4.89371 | 42.84778 | 32835 ft | 494 kts | 45° |
| 2026-05-07 13:43 | 4.94163 | 42.89732 | 32839 ft | 494 kts | 45° |
| 2026-05-07 13:44 | 4.98959 | 42.94693 | 32843 ft | 494 kts | 45° |
| 2026-05-07 13:44 | 5.03751 | 42.99649 | 32840 ft | 494 kts | 45° |
| 2026-05-07 13:45 | 5.08544 | 43.04607 | 32837 ft | 495 kts | 46° |
| 2026-05-07 13:45 | 5.13312 | 43.09541 | 32845 ft | 495 kts | 46° |
| 2026-05-07 13:46 | 5.18113 | 43.14511 | 32841 ft | 496 kts | 46° |
| 2026-05-07 13:46 | 5.22924 | 43.19491 | 32847 ft | 496 kts | 46° |
| 2026-05-07 13:47 | 5.27730 | 43.24468 | 32845 ft | 497 kts | 46° |
| 2026-05-07 13:47 | 5.32545 | 43.29455 | 32849 ft | 497 kts | 46° |
| 2026-05-07 13:48 | 5.37365 | 43.34449 | 32849 ft | 498 kts | 46° |
| 2026-05-07 13:48 | 5.42187 | 43.39446 | 32846 ft | 498 kts | 46° |
| 2026-05-07 13:49 | 5.46983 | 43.44417 | 32840 ft | 498 kts | 46° |
| 2026-05-07 13:49 | 5.51805 | 43.49417 | 32843 ft | 499 kts | 46° |
| 2026-05-07 13:50 | 5.56629 | 43.54420 | 32842 ft | 498 kts | 46° |
| 2026-05-07 13:50 | 5.61448 | 43.59420 | 32838 ft | 497 kts | 46° |
| 2026-05-07 13:51 | 5.66223 | 43.64375 | 32836 ft | 496 kts | 46° |
| 2026-05-07 13:51 | 5.71016 | 43.69356 | 32839 ft | 495 kts | 46° |
| 2026-05-07 13:52 | 5.75788 | 43.74331 | 32835 ft | 494 kts | 46° |
| 2026-05-07 13:52 | 5.80548 | 43.79298 | 32833 ft | 493 kts | 46° |
| 2026-05-07 13:53 | 5.85311 | 43.84266 | 32832 ft | 493 kts | 46° |
| 2026-05-07 13:53 | 5.90043 | 43.89203 | 32834 ft | 494 kts | 46° |
| 2026-05-07 13:54 | 5.94823 | 43.94190 | 32829 ft | 495 kts | 46° |
| 2026-05-07 13:54 | 5.99597 | 43.99174 | 32829 ft | 495 kts | 46° |
| 2026-05-07 13:55 | 6.04353 | 44.04140 | 32831 ft | 496 kts | 46° |
| 2026-05-07 13:55 | 6.09144 | 44.09144 | 32838 ft | 497 kts | 46° |
| 2026-05-07 13:56 | 6.13946 | 44.14160 | 32840 ft | 498 kts | 46° |
| 2026-05-07 13:56 | 6.18762 | 44.19193 | 32837 ft | 499 kts | 46° |
| 2026-05-07 13:57 | 6.23579 | 44.24228 | 32832 ft | 500 kts | 46° |
| 2026-05-07 13:57 | 6.28403 | 44.29271 | 32834 ft | 501 kts | 46° |
| 2026-05-07 13:58 | 6.33228 | 44.34318 | 32831 ft | 501 kts | 46° |
| 2026-05-07 13:58 | 6.38054 | 44.39367 | 32829 ft | 501 kts | 46° |
| 2026-05-07 13:59 | 6.42885 | 44.44422 | 32826 ft | 501 kts | 46° |
| 2026-05-07 13:59 | 6.47713 | 44.49476 | 32831 ft | 501 kts | 46° |
| 2026-05-07 14:00 | 6.52510 | 44.54500 | 32834 ft | 501 kts | 46° |
| 2026-05-07 14:00 | 6.57340 | 44.59559 | 32837 ft | 501 kts | 46° |
| 2026-05-07 14:01 | 6.62175 | 44.64626 | 32835 ft | 502 kts | 46° |
| 2026-05-07 14:01 | 6.67013 | 44.69698 | 32839 ft | 503 kts | 46° |
| 2026-05-07 14:02 | 6.71858 | 44.74777 | 32839 ft | 503 kts | 46° |
| 2026-05-07 14:02 | 6.76702 | 44.79867 | 32839 ft | 503 kts | 47° |
| 2026-05-07 14:03 | 6.81545 | 44.84963 | 32842 ft | 504 kts | 47° |
| 2026-05-07 14:03 | 6.85572 | 44.89203 | 32842 ft | 504 kts | 47° |
| 2026-05-07 14:04 | 6.91201 | 44.95130 | 32841 ft | 504 kts | 47° |
| 2026-05-07 14:04 | 6.96041 | 45.00228 | 32842 ft | 503 kts | 47° |
| 2026-05-07 14:05 | 7.00103 | 45.04507 | 32842 ft | 504 kts | 47° |
| 2026-05-07 14:05 | 7.04910 | 45.09574 | 32839 ft | 504 kts | 47° |
| 2026-05-07 14:06 | 7.09758 | 45.14684 | 32837 ft | 504 kts | 47° |
| 2026-05-07 14:06 | 7.14598 | 45.19788 | 32828 ft | 504 kts | 47° |
| 2026-05-07 14:07 | 7.19449 | 45.24905 | 32838 ft | 504 kts | 47° |
| 2026-05-07 14:07 | 7.24296 | 45.30020 | 32832 ft | 505 kts | 47° |
| 2026-05-07 14:08 | 7.29151 | 45.35145 | 32827 ft | 506 kts | 47° |
| 2026-05-07 14:08 | 7.33979 | 45.40244 | 32825 ft | 506 kts | 47° |
| 2026-05-07 14:09 | 7.38844 | 45.45382 | 32823 ft | 506 kts | 47° |
| 2026-05-07 14:09 | 7.43705 | 45.50519 | 32823 ft | 506 kts | 46° |
| 2026-05-07 14:10 | 7.48561 | 45.55652 | 32821 ft | 506 kts | 46° |
| 2026-05-07 14:10 | 7.53416 | 45.60786 | 32822 ft | 505 kts | 47° |
| 2026-05-07 14:11 | 7.58267 | 45.65918 | 32820 ft | 505 kts | 46° |
| 2026-05-07 14:11 | 7.63083 | 45.71016 | 32823 ft | 505 kts | 46° |
| 2026-05-07 14:12 | 7.67938 | 45.76155 | 32820 ft | 505 kts | 46° |
| 2026-05-07 14:12 | 7.72780 | 45.81287 | 32826 ft | 505 kts | 46° |
| 2026-05-07 14:13 | 7.77624 | 45.86428 | 32819 ft | 505 kts | 46° |
| 2026-05-07 14:13 | 7.82435 | 45.91537 | 32824 ft | 505 kts | 46° |
| 2026-05-07 14:14 | 7.87281 | 45.96684 | 32826 ft | 506 kts | 46° |
| 2026-05-07 14:14 | 7.92129 | 46.01834 | 32826 ft | 506 kts | 46° |
| 2026-05-07 14:15 | 7.96983 | 46.06993 | 32829 ft | 506 kts | 46° |
| 2026-05-07 14:15 | 8.01835 | 46.12152 | 32830 ft | 507 kts | 46° |
| 2026-05-07 14:16 | 8.06685 | 46.17312 | 32831 ft | 507 kts | 46° |
| 2026-05-07 14:16 | 8.11539 | 46.22478 | 32828 ft | 507 kts | 46° |
| 2026-05-07 14:17 | 8.16362 | 46.27613 | 32826 ft | 507 kts | 46° |
| 2026-05-07 14:17 | 8.21212 | 46.32777 | 32825 ft | 507 kts | 46° |
| 2026-05-07 14:18 | 8.26087 | 46.37914 | 32824 ft | 506 kts | 46° |
| 2026-05-07 14:18 | 8.30991 | 46.43024 | 32822 ft | 506 kts | 46° |
| 2026-05-07 14:19 | 8.35891 | 46.48135 | 32825 ft | 505 kts | 46° |
| 2026-05-07 14:19 | 8.40773 | 46.53241 | 32826 ft | 505 kts | 46° |
| 2026-05-07 14:20 | 8.45655 | 46.58354 | 32827 ft | 505 kts | 46° |
| 2026-05-07 14:20 | 8.50525 | 46.63456 | 32825 ft | 505 kts | 46° |
| 2026-05-07 14:21 | 8.55375 | 46.68539 | 32826 ft | 505 kts | 46° |
| 2026-05-07 14:21 | 8.60249 | 46.73648 | 32823 ft | 505 kts | 46° |
| 2026-05-07 14:22 | 8.65122 | 46.78758 | 32817 ft | 505 kts | 46° |
| 2026-05-07 14:22 | 8.70000 | 46.83876 | 32815 ft | 505 kts | 46° |
| 2026-05-07 14:23 | 8.74845 | 46.88961 | 32812 ft | 505 kts | 46° |
| 2026-05-07 14:23 | 8.79722 | 46.94082 | 32815 ft | 505 kts | 46° |
| 2026-05-07 14:24 | 8.84600 | 46.99205 | 32812 ft | 505 kts | 46° |
| 2026-05-07 14:24 | 8.89477 | 47.04330 | 32808 ft | 505 kts | 46° |
| 2026-05-07 14:25 | 8.94323 | 47.09425 | 32798 ft | 505 kts | 46° |
| 2026-05-07 14:25 | 8.99189 | 47.14543 | 32802 ft | 504 kts | 46° |
| 2026-05-07 14:26 | 9.04047 | 47.19655 | 32800 ft | 504 kts | 46° |
| 2026-05-07 14:26 | 9.08904 | 47.24767 | 32801 ft | 504 kts | 46° |
| 2026-05-07 14:27 | 9.13757 | 47.29879 | 32801 ft | 504 kts | 46° |
| 2026-05-07 14:27 | 9.18624 | 47.35006 | 32808 ft | 504 kts | 46° |
| 2026-05-07 14:28 | 9.23516 | 47.40017 | 32815 ft | 503 kts | 45° |
| 2026-05-07 14:28 | 9.28506 | 47.44991 | 32809 ft | 502 kts | 44° |
| 2026-05-07 14:29 | 9.33487 | 47.49964 | 32816 ft | 502 kts | 45° |
| 2026-05-07 14:29 | 9.38446 | 47.54943 | 32816 ft | 502 kts | 45° |
| 2026-05-07 14:30 | 9.43391 | 47.59922 | 32823 ft | 501 kts | 45° |
| 2026-05-07 14:30 | 9.48340 | 47.64908 | 32825 ft | 502 kts | 45° |
| 2026-05-07 14:31 | 9.53293 | 47.69901 | 32832 ft | 502 kts | 45° |
| 2026-05-07 14:31 | 9.58215 | 47.74861 | 32828 ft | 502 kts | 45° |
| 2026-05-07 14:32 | 9.63175 | 47.79864 | 32831 ft | 503 kts | 45° |
| 2026-05-07 14:32 | 9.68137 | 47.84869 | 32833 ft | 503 kts | 45° |
| 2026-05-07 14:33 | 9.73094 | 47.89872 | 32835 ft | 503 kts | 45° |
| 2026-05-07 14:33 | 9.78057 | 47.94883 | 32836 ft | 503 kts | 45° |
| 2026-05-07 14:34 | 9.83012 | 47.99889 | 32832 ft | 503 kts | 45° |
| 2026-05-07 14:34 | 9.87932 | 48.04862 | 32835 ft | 503 kts | 45° |
| 2026-05-07 14:35 | 9.92894 | 48.09879 | 32829 ft | 503 kts | 45° |
| 2026-05-07 14:35 | 9.97860 | 48.14903 | 32823 ft | 503 kts | 45° |
| 2026-05-07 14:36 | 10.02810 | 48.19913 | 32826 ft | 502 kts | 45° |
| 2026-05-07 14:36 | 10.07722 | 48.24885 | 32826 ft | 502 kts | 45° |
| 2026-05-07 14:37 | 10.12673 | 48.29901 | 32833 ft | 503 kts | 45° |
| 2026-05-07 14:37 | 10.20110 | 48.37438 | 32834 ft | 503 kts | 46° |
| 2026-05-07 14:38 | 10.25067 | 48.42466 | 32828 ft | 503 kts | 46° |
| 2026-05-07 14:38 | 10.30031 | 48.47502 | 32833 ft | 504 kts | 46° |
| 2026-05-07 14:39 | 10.34959 | 48.52504 | 32838 ft | 504 kts | 46° |
| 2026-05-07 14:39 | 10.39921 | 48.57544 | 32833 ft | 504 kts | 46° |
| 2026-05-07 14:40 | 10.44891 | 48.62594 | 32838 ft | 505 kts | 46° |
| 2026-05-07 14:40 | 10.49863 | 48.67648 | 32840 ft | 504 kts | 46° |
| 2026-05-07 14:41 | 10.54796 | 48.72665 | 32835 ft | 504 kts | 46° |
| 2026-05-07 14:41 | 10.59762 | 48.77718 | 32850 ft | 504 kts | 46° |
| 2026-05-07 14:42 | 10.64724 | 48.82770 | 32844 ft | 504 kts | 46° |
| 2026-05-07 14:42 | 10.69683 | 48.87821 | 32851 ft | 504 kts | 46° |
| 2026-05-07 14:43 | 10.74612 | 48.92843 | 32841 ft | 504 kts | 46° |
| 2026-05-07 14:43 | 10.79564 | 48.97892 | 32838 ft | 504 kts | 46° |
| 2026-05-07 14:44 | 10.84515 | 49.02942 | 32842 ft | 504 kts | 46° |
| 2026-05-07 14:44 | 10.89462 | 49.07991 | 32836 ft | 504 kts | 46° |
| 2026-05-07 14:45 | 10.94416 | 49.13050 | 32840 ft | 503 kts | 46° |
| 2026-05-07 14:45 | 10.99360 | 49.18100 | 32836 ft | 503 kts | 46° |
| 2026-05-07 14:46 | 11.04292 | 49.23141 | 32836 ft | 502 kts | 46° |
| 2026-05-07 14:46 | 11.09196 | 49.28157 | 32838 ft | 502 kts | 46° |
| 2026-05-07 14:47 | 11.14123 | 49.33197 | 32824 ft | 502 kts | 46° |
| 2026-05-07 14:47 | 11.19056 | 49.38247 | 32840 ft | 502 kts | 46° |
| 2026-05-07 14:48 | 11.23997 | 49.43308 | 32834 ft | 503 kts | 46° |
| 2026-05-07 14:48 | 11.28936 | 49.48369 | 32829 ft | 503 kts | 46° |
| 2026-05-07 14:49 | 11.33876 | 49.53436 | 32837 ft | 504 kts | 46° |
| 2026-05-07 14:49 | 11.38819 | 49.58506 | 32827 ft | 504 kts | 46° |
| 2026-05-07 14:50 | 11.42834 | 49.62808 | 32830 ft | 504 kts | 49° |
| 2026-05-07 14:50 | 11.47506 | 49.68147 | 32832 ft | 504 kts | 50° |
| 2026-05-07 14:51 | 11.52163 | 49.73489 | 32816 ft | 504 kts | 49° |
| 2026-05-07 14:51 | 11.56858 | 49.78815 | 32817 ft | 504 kts | 49° |
| 2026-05-07 14:52 | 11.61566 | 49.84127 | 32815 ft | 504 kts | 49° |
| 2026-05-07 14:52 | 11.66255 | 49.89420 | 32813 ft | 504 kts | 49° |
| 2026-05-07 14:53 | 11.70957 | 49.94732 | 32810 ft | 504 kts | 49° |
| 2026-05-07 14:53 | 11.75657 | 50.00048 | 32808 ft | 504 kts | 49° |
| 2026-05-07 14:54 | 11.80354 | 50.05364 | 32808 ft | 505 kts | 49° |
| 2026-05-07 14:54 | 11.82689 | 50.08007 | 32944 ft | 508 kts | 49° |
| 2026-05-07 14:54 | 11.85058 | 50.10691 | 33275 ft | 507 kts | 49° |
| 2026-05-07 14:55 | 11.87419 | 50.13365 | 33656 ft | 505 kts | 49° |
| 2026-05-07 14:55 | 11.89768 | 50.16025 | 33996 ft | 504 kts | 49° |
| 2026-05-07 14:55 | 11.92114 | 50.18685 | 34314 ft | 503 kts | 49° |
| 2026-05-07 14:55 | 11.94450 | 50.21332 | 34652 ft | 501 kts | 49° |
| 2026-05-07 14:56 | 11.96783 | 50.23978 | 34830 ft | 502 kts | 49° |
| 2026-05-07 14:56 | 11.99124 | 50.26634 | 34808 ft | 503 kts | 49° |
| 2026-05-07 14:56 | 12.03803 | 50.31943 | 34797 ft | 500 kts | 49° |
| 2026-05-07 14:57 | 12.08423 | 50.37190 | 34794 ft | 498 kts | 49° |
| 2026-05-07 14:57 | 12.13059 | 50.42459 | 34797 ft | 497 kts | 49° |
| 2026-05-07 14:58 | 12.17685 | 50.47704 | 34804 ft | 497 kts | 48° |
| 2026-05-07 14:58 | 12.22521 | 50.52773 | 34805 ft | 497 kts | 46° |
| 2026-05-07 14:59 | 12.27402 | 50.57732 | 34804 ft | 498 kts | 46° |
| 2026-05-07 14:59 | 12.32296 | 50.62760 | 34805 ft | 499 kts | 46° |
| 2026-05-07 15:00 | 12.37174 | 50.67823 | 34803 ft | 500 kts | 46° |
| 2026-05-07 15:00 | 12.42070 | 50.72916 | 34809 ft | 501 kts | 46° |
| 2026-05-07 15:01 | 12.46963 | 50.78005 | 34810 ft | 502 kts | 46° |
| 2026-05-07 15:01 | 12.51866 | 50.83105 | 34808 ft | 502 kts | 46° |
| 2026-05-07 15:02 | 12.56741 | 50.88179 | 34807 ft | 503 kts | 46° |
| 2026-05-07 15:02 | 12.61647 | 50.93288 | 34808 ft | 504 kts | 46° |
| 2026-05-07 15:03 | 12.66569 | 50.98417 | 34815 ft | 504 kts | 46° |
| 2026-05-07 15:03 | 12.71493 | 51.03556 | 34813 ft | 505 kts | 46° |
| 2026-05-07 15:04 | 12.76386 | 51.08667 | 34814 ft | 505 kts | 46° |
| 2026-05-07 15:04 | 12.81305 | 51.13809 | 34814 ft | 505 kts | 46° |
| 2026-05-07 15:05 | 12.86232 | 51.18961 | 34818 ft | 505 kts | 46° |
| 2026-05-07 15:05 | 12.91115 | 51.24071 | 34817 ft | 505 kts | 46° |
| 2026-05-07 15:06 | 12.96024 | 51.29212 | 34819 ft | 504 kts | 46° |
| 2026-05-07 15:06 | 13.00931 | 51.34353 | 34820 ft | 504 kts | 46° |
| 2026-05-07 15:07 | 13.05832 | 51.39491 | 34819 ft | 503 kts | 46° |
| 2026-05-07 15:07 | 13.10727 | 51.44625 | 34825 ft | 503 kts | 46° |
| 2026-05-07 15:08 | 13.15620 | 51.49761 | 34826 ft | 503 kts | 46° |
| 2026-05-07 15:08 | 13.20505 | 51.54891 | 34830 ft | 502 kts | 46° |
| 2026-05-07 15:09 | 13.25359 | 51.59993 | 34833 ft | 502 kts | 46° |
| 2026-05-07 15:09 | 13.30248 | 51.65134 | 34829 ft | 502 kts | 46° |
| 2026-05-07 15:10 | 13.35133 | 51.70274 | 34829 ft | 502 kts | 46° |
| 2026-05-07 15:10 | 13.39989 | 51.75387 | 34829 ft | 502 kts | 46° |
| 2026-05-07 15:11 | 13.44860 | 51.80519 | 34828 ft | 501 kts | 46° |
| 2026-05-07 15:11 | 13.49728 | 51.85653 | 34829 ft | 501 kts | 46° |
| 2026-05-07 15:12 | 13.54594 | 51.90785 | 34832 ft | 501 kts | 46° |
| 2026-05-07 15:12 | 13.59489 | 51.95893 | 34832 ft | 501 kts | 46° |
| 2026-05-07 15:13 | 13.64379 | 52.00953 | 34833 ft | 501 kts | 45° |
| 2026-05-07 15:13 | 13.69289 | 52.06042 | 34831 ft | 501 kts | 45° |
| 2026-05-07 15:14 | 13.74202 | 52.11147 | 34839 ft | 501 kts | 46° |
| 2026-05-07 15:14 | 13.79109 | 52.16252 | 34839 ft | 501 kts | 46° |
| 2026-05-07 15:15 | 13.84013 | 52.21358 | 34840 ft | 501 kts | 46° |
| 2026-05-07 15:15 | 13.88914 | 52.26463 | 34841 ft | 501 kts | 46° |
| 2026-05-07 15:16 | 13.93790 | 52.31545 | 34841 ft | 501 kts | 45° |
| 2026-05-07 15:16 | 13.98697 | 52.36663 | 34840 ft | 501 kts | 45° |
| 2026-05-07 15:17 | 14.03594 | 52.41774 | 34842 ft | 501 kts | 45° |
| 2026-05-07 15:17 | 14.08493 | 52.46890 | 34842 ft | 501 kts | 45° |
| 2026-05-07 15:18 | 14.13357 | 52.51973 | 34844 ft | 501 kts | 45° |
| 2026-05-07 15:18 | 14.18247 | 52.57087 | 34840 ft | 500 kts | 45° |
| 2026-05-07 15:19 | 14.23143 | 52.62210 | 34843 ft | 500 kts | 45° |
| 2026-05-07 15:19 | 14.28021 | 52.67318 | 34847 ft | 500 kts | 45° |
| 2026-05-07 15:20 | 14.32897 | 52.72426 | 34843 ft | 500 kts | 45° |
| 2026-05-07 15:20 | 14.37528 | 52.77281 | 34844 ft | 500 kts | 45° |
| 2026-05-07 15:21 | 14.42407 | 52.82400 | 34845 ft | 499 kts | 45° |
| 2026-05-07 15:21 | 14.47277 | 52.87513 | 34849 ft | 499 kts | 45° |
| 2026-05-07 15:22 | 14.52147 | 52.92630 | 34847 ft | 499 kts | 45° |
| 2026-05-07 15:22 | 14.57014 | 52.97747 | 34851 ft | 499 kts | 45° |
| 2026-05-07 15:23 | 14.61843 | 53.02827 | 34847 ft | 499 kts | 45° |
| 2026-05-07 15:23 | 14.66949 | 53.07676 | 34848 ft | 498 kts | 37° |
| 2026-05-07 15:24 | 14.72747 | 53.11578 | 34851 ft | 497 kts | 31° |
| 2026-05-07 15:24 | 14.78680 | 53.15277 | 34849 ft | 497 kts | 31° |
| 2026-05-07 15:25 | 14.84587 | 53.19000 | 34849 ft | 498 kts | 31° |
| 2026-05-07 15:25 | 14.90496 | 53.22763 | 34849 ft | 498 kts | 31° |
| 2026-05-07 15:26 | 14.96366 | 53.26515 | 34858 ft | 498 kts | 31° |
| 2026-05-07 15:26 | 15.02257 | 53.30281 | 34855 ft | 498 kts | 31° |
| 2026-05-07 15:27 | 15.08154 | 53.34051 | 34853 ft | 498 kts | 31° |
| 2026-05-07 15:27 | 15.14056 | 53.37826 | 34855 ft | 497 kts | 31° |
| 2026-05-07 15:28 | 15.19945 | 53.41595 | 34854 ft | 497 kts | 31° |
| 2026-05-07 15:28 | 15.25831 | 53.45365 | 34854 ft | 497 kts | 31° |
| 2026-05-07 15:29 | 15.31671 | 53.49108 | 34855 ft | 497 kts | 31° |
| 2026-05-07 15:29 | 15.37547 | 53.52878 | 34857 ft | 497 kts | 31° |
| 2026-05-07 15:30 | 15.43431 | 53.56653 | 34857 ft | 497 kts | 31° |
| 2026-05-07 15:30 | 15.49268 | 53.60493 | 34860 ft | 497 kts | 32° |
| 2026-05-07 15:31 | 15.55078 | 53.64385 | 34863 ft | 497 kts | 32° |
| 2026-05-07 15:31 | 15.60889 | 53.68270 | 34859 ft | 497 kts | 32° |
| 2026-05-07 15:32 | 15.66672 | 53.72127 | 34858 ft | 497 kts | 32° |
| 2026-05-07 15:32 | 15.72484 | 53.76001 | 34859 ft | 498 kts | 32° |
| 2026-05-07 15:33 | 15.78321 | 53.79898 | 34859 ft | 498 kts | 32° |
| 2026-05-07 15:33 | 15.84153 | 53.83794 | 34857 ft | 498 kts | 32° |
| 2026-05-07 15:34 | 15.89997 | 53.87694 | 34855 ft | 498 kts | 32° |
| 2026-05-07 15:34 | 15.95853 | 53.91558 | 34856 ft | 499 kts | 32° |
| 2026-05-07 15:35 | 16.01683 | 53.95398 | 34860 ft | 499 kts | 32° |
| 2026-05-07 15:35 | 16.07549 | 53.99270 | 34857 ft | 500 kts | 32° |
| 2026-05-07 15:36 | 16.13424 | 54.03155 | 34855 ft | 500 kts | 32° |
| 2026-05-07 15:36 | 16.19291 | 54.07039 | 34857 ft | 500 kts | 32° |
| 2026-05-07 15:37 | 16.25167 | 54.10931 | 34854 ft | 500 kts | 32° |
| 2026-05-07 15:37 | 16.31039 | 54.14823 | 34846 ft | 501 kts | 32° |
| 2026-05-07 15:38 | 16.36879 | 54.18697 | 34851 ft | 501 kts | 32° |
| 2026-05-07 15:38 | 16.41817 | 54.21975 | 34852 ft | 501 kts | 32° |
| 2026-05-07 15:39 | 16.47652 | 54.25851 | 34851 ft | 501 kts | 32° |
| 2026-05-07 15:39 | 16.53538 | 54.29763 | 34845 ft | 501 kts | 32° |
| 2026-05-07 15:40 | 16.59422 | 54.33677 | 34843 ft | 501 kts | 32° |
| 2026-05-07 15:40 | 16.65304 | 54.37593 | 34847 ft | 501 kts | 32° |
| 2026-05-07 15:41 | 16.71193 | 54.41516 | 34845 ft | 501 kts | 32° |
| 2026-05-07 15:41 | 16.77075 | 54.45438 | 34851 ft | 501 kts | 32° |
| 2026-05-07 15:42 | 16.82908 | 54.49330 | 34858 ft | 502 kts | 32° |
| 2026-05-07 15:42 | 16.88789 | 54.53257 | 34858 ft | 501 kts | 32° |
| 2026-05-07 15:43 | 16.94666 | 54.57178 | 34876 ft | 502 kts | 32° |
| 2026-05-07 15:43 | 17.00561 | 54.61111 | 34878 ft | 502 kts | 32° |
| 2026-05-07 15:44 | 17.06447 | 54.65042 | 34887 ft | 502 kts | 32° |
| 2026-05-07 15:44 | 17.12332 | 54.68977 | 34888 ft | 502 kts | 32° |
| 2026-05-07 15:45 | 17.18217 | 54.72915 | 34890 ft | 502 kts | 32° |
| 2026-05-07 15:45 | 17.24039 | 54.76814 | 34895 ft | 502 kts | 32° |
| 2026-05-07 15:46 | 17.32786 | 54.82974 | 34890 ft | 503 kts | 35° |
| 2026-05-07 15:47 | 17.38395 | 54.87281 | 34893 ft | 503 kts | 35° |
| 2026-05-07 15:47 | 17.44059 | 54.91597 | 34894 ft | 503 kts | 35° |
| 2026-05-07 15:48 | 17.49747 | 54.95879 | 34885 ft | 503 kts | 34° |
| 2026-05-07 15:48 | 17.55448 | 55.00161 | 34885 ft | 503 kts | 35° |
| 2026-05-07 15:49 | 17.61137 | 55.04441 | 34869 ft | 503 kts | 34° |
| 2026-05-07 15:49 | 17.66822 | 55.08724 | 34876 ft | 503 kts | 34° |
| 2026-05-07 15:50 | 17.72510 | 55.13014 | 34871 ft | 504 kts | 34° |
| 2026-05-07 15:50 | 17.78163 | 55.17280 | 34874 ft | 504 kts | 34° |
| 2026-05-07 15:51 | 17.83853 | 55.21588 | 34871 ft | 504 kts | 35° |
| 2026-05-07 15:51 | 17.89535 | 55.25896 | 34868 ft | 504 kts | 34° |
| 2026-05-07 15:52 | 17.95224 | 55.30212 | 34872 ft | 504 kts | 35° |
| 2026-05-07 15:52 | 18.00908 | 55.34528 | 34866 ft | 504 kts | 35° |
| 2026-05-07 15:53 | 18.06595 | 55.38850 | 34874 ft | 504 kts | 35° |
| 2026-05-07 15:53 | 18.12312 | 55.43044 | 34865 ft | 503 kts | 32° |
| 2026-05-07 15:54 | 18.18226 | 55.46989 | 34868 ft | 503 kts | 31° |
| 2026-05-07 15:54 | 18.24141 | 55.50960 | 34870 ft | 503 kts | 32° |
| 2026-05-07 15:55 | 18.30017 | 55.54977 | 34871 ft | 503 kts | 32° |
| 2026-05-07 15:55 | 18.35886 | 55.58995 | 34873 ft | 503 kts | 32° |
| 2026-05-07 15:56 | 18.41754 | 55.63019 | 34875 ft | 503 kts | 32° |
| 2026-05-07 15:56 | 18.47619 | 55.67048 | 34874 ft | 504 kts | 32° |
| 2026-05-07 15:57 | 18.53449 | 55.71055 | 34873 ft | 504 kts | 32° |
| 2026-05-07 15:57 | 18.59323 | 55.75096 | 34873 ft | 504 kts | 32° |
| 2026-05-07 15:58 | 18.65199 | 55.79142 | 34868 ft | 504 kts | 32° |
| 2026-05-07 15:58 | 18.71071 | 55.83188 | 34865 ft | 504 kts | 33° |
| 2026-05-07 15:59 | 18.76936 | 55.87234 | 34864 ft | 504 kts | 33° |
| 2026-05-07 15:59 | 18.82807 | 55.91286 | 34863 ft | 503 kts | 33° |
| 2026-05-07 16:00 | 18.88631 | 55.95311 | 34868 ft | 503 kts | 33° |
| 2026-05-07 16:00 | 18.94546 | 55.99269 | 34865 ft | 503 kts | 27° |
| 2026-05-07 16:01 | 19.00974 | 56.02202 | 34867 ft | 502 kts | 17° |
| 2026-05-07 16:01 | 19.07716 | 56.04084 | 34853 ft | 502 kts | 13° |
| 2026-05-07 16:02 | 19.14508 | 56.05836 | 34860 ft | 502 kts | 13° |
| 2026-05-07 16:02 | 19.21253 | 56.07614 | 34860 ft | 502 kts | 13° |
| 2026-05-07 16:03 | 19.28075 | 56.09446 | 34859 ft | 502 kts | 13° |
| 2026-05-07 16:03 | 19.34822 | 56.11268 | 34855 ft | 503 kts | 13° |
| 2026-05-07 16:04 | 19.41604 | 56.13100 | 34859 ft | 503 kts | 13° |
| 2026-05-07 16:04 | 19.48387 | 56.14931 | 34857 ft | 502 kts | 13° |
| 2026-05-07 16:05 | 19.55167 | 56.16762 | 34858 ft | 502 kts | 13° |
| 2026-05-07 16:05 | 19.61940 | 56.18593 | 34856 ft | 502 kts | 13° |
| 2026-05-07 16:06 | 19.68715 | 56.20427 | 34849 ft | 502 kts | 13° |
| 2026-05-07 16:06 | 19.75480 | 56.22259 | 34849 ft | 502 kts | 13° |
| 2026-05-07 16:07 | 19.82208 | 56.24083 | 34858 ft | 502 kts | 13° |
| 2026-05-07 16:07 | 19.88980 | 56.25921 | 34849 ft | 502 kts | 13° |
| 2026-05-07 16:08 | 19.95788 | 56.27641 | 34846 ft | 501 kts | 8° |
| 2026-05-07 16:08 | 20.02708 | 56.28231 | 34846 ft | 499 kts | 359° |
| 2026-05-07 16:09 | 20.09652 | 56.28178 | 34850 ft | 499 kts | 358° |
| 2026-05-07 16:09 | 20.16560 | 56.28137 | 34846 ft | 499 kts | 359° |
| 2026-05-07 16:10 | 20.23518 | 56.28139 | 34843 ft | 499 kts | 359° |
| 2026-05-07 16:10 | 20.30475 | 56.28155 | 34844 ft | 499 kts | 359° |
| 2026-05-07 16:11 | 20.37430 | 56.28169 | 34841 ft | 499 kts | 359° |
| 2026-05-07 16:11 | 20.44329 | 56.28181 | 34838 ft | 499 kts | 359° |
| 2026-05-07 16:12 | 20.51284 | 56.28193 | 34838 ft | 499 kts | 359° |
| 2026-05-07 16:12 | 20.58221 | 56.27925 | 34843 ft | 497 kts | 352° |
| 2026-05-07 16:13 | 20.65085 | 56.26913 | 34843 ft | 497 kts | 350° |
| 2026-05-07 16:13 | 20.71883 | 56.25869 | 34835 ft | 497 kts | 350° |
| 2026-05-07 16:14 | 20.78753 | 56.24854 | 34833 ft | 497 kts | 351° |
| 2026-05-07 16:14 | 20.85613 | 56.23862 | 34833 ft | 497 kts | 351° |
| 2026-05-07 16:15 | 20.92422 | 56.22879 | 34829 ft | 496 kts | 351° |
| 2026-05-07 16:15 | 20.99268 | 56.21888 | 34833 ft | 496 kts | 351° |
| 2026-05-07 16:16 | 21.06120 | 56.20894 | 34830 ft | 496 kts | 351° |
| 2026-05-07 16:16 | 21.12965 | 56.19900 | 34830 ft | 496 kts | 351° |
| 2026-05-07 16:17 | 21.19806 | 56.18905 | 34842 ft | 496 kts | 351° |
| 2026-05-07 16:17 | 21.26592 | 56.17918 | 34831 ft | 495 kts | 350° |
| 2026-05-07 16:18 | 21.33425 | 56.16922 | 34829 ft | 495 kts | 350° |
| 2026-05-07 16:18 | 21.40243 | 56.15924 | 34830 ft | 494 kts | 350° |
| 2026-05-07 16:19 | 21.47063 | 56.14925 | 34830 ft | 493 kts | 350° |
| 2026-05-07 16:19 | 21.53867 | 56.13928 | 34830 ft | 493 kts | 350° |
| 2026-05-07 16:20 | 21.60627 | 56.12936 | 34830 ft | 493 kts | 350° |
| 2026-05-07 16:20 | 21.67431 | 56.11937 | 34833 ft | 493 kts | 350° |
| 2026-05-07 16:21 | 21.74243 | 56.10935 | 34842 ft | 494 kts | 350° |
| 2026-05-07 16:21 | 21.81044 | 56.09935 | 34837 ft | 494 kts | 350° |
| 2026-05-07 16:22 | 21.87859 | 56.08931 | 34833 ft | 494 kts | 350° |
| 2026-05-07 16:22 | 21.94674 | 56.07926 | 34839 ft | 494 kts | 350° |
| 2026-05-07 16:23 | 22.01438 | 56.06928 | 34841 ft | 494 kts | 350° |
| 2026-05-07 16:23 | 22.08244 | 56.05920 | 34837 ft | 494 kts | 350° |
| 2026-05-07 16:24 | 22.15057 | 56.04906 | 34836 ft | 493 kts | 350° |
| 2026-05-07 16:24 | 22.21865 | 56.03892 | 34839 ft | 493 kts | 350° |
| 2026-05-07 16:25 | 22.28634 | 56.02883 | 34847 ft | 493 kts | 350° |
| 2026-05-07 16:25 | 22.34336 | 56.02032 | 34840 ft | 494 kts | 350° |
| 2026-05-07 16:26 | 22.41135 | 56.01019 | 34842 ft | 493 kts | 350° |
| 2026-05-07 16:26 | 22.47940 | 56.00011 | 34841 ft | 493 kts | 350° |
| 2026-05-07 16:27 | 22.54698 | 55.99010 | 34843 ft | 493 kts | 350° |
| 2026-05-07 16:27 | 22.61509 | 55.97998 | 34838 ft | 493 kts | 350° |
| 2026-05-07 16:28 | 22.68316 | 55.96986 | 34839 ft | 493 kts | 350° |
| 2026-05-07 16:28 | 22.75109 | 55.95974 | 34842 ft | 493 kts | 350° |
| 2026-05-07 16:29 | 22.81917 | 55.94960 | 34752 ft | 495 kts | 350° |
| 2026-05-07 16:29 | 22.85380 | 55.94442 | 33812 ft | 508 kts | 350° |
| 2026-05-07 16:29 | 22.88885 | 55.93919 | 32905 ft | 509 kts | 350° |
| 2026-05-07 16:29 | 22.92396 | 55.93397 | 32114 ft | 508 kts | 350° |
| 2026-05-07 16:30 | 22.95882 | 55.92879 | 31524 ft | 502 kts | 349° |
| 2026-05-07 16:30 | 22.99323 | 55.92366 | 30937 ft | 497 kts | 349° |
| 2026-05-07 16:30 | 23.02731 | 55.91857 | 30355 ft | 493 kts | 349° |
| 2026-05-07 16:30 | 23.06106 | 55.91352 | 29758 ft | 484 kts | 349° |
| 2026-05-07 16:31 | 23.09388 | 55.90860 | 29158 ft | 479 kts | 349° |
| 2026-05-07 16:31 | 23.12671 | 55.90366 | 28590 ft | 474 kts | 349° |
| 2026-05-07 16:31 | 23.15926 | 55.89875 | 28024 ft | 470 kts | 350° |
| 2026-05-07 16:31 | 23.19150 | 55.89388 | 27499 ft | 465 kts | 350° |
| 2026-05-07 16:32 | 23.22344 | 55.88907 | 26977 ft | 461 kts | 350° |
| 2026-05-07 16:32 | 23.25507 | 55.88429 | 26456 ft | 457 kts | 350° |
| 2026-05-07 16:32 | 23.28643 | 55.87956 | 25952 ft | 453 kts | 351° |
| 2026-05-07 16:32 | 23.31749 | 55.87487 | 25459 ft | 449 kts | 351° |
| 2026-05-07 16:33 | 23.34836 | 55.87021 | 24946 ft | 446 kts | 351° |
| 2026-05-07 16:33 | 23.37903 | 55.86557 | 24443 ft | 444 kts | 351° |
| 2026-05-07 16:33 | 23.40945 | 55.86097 | 23954 ft | 439 kts | 351° |
| 2026-05-07 16:33 | 23.43965 | 55.85641 | 23471 ft | 437 kts | 351° |
| 2026-05-07 16:34 | 23.46966 | 55.85186 | 22917 ft | 434 kts | 351° |
| 2026-05-07 16:34 | 23.49943 | 55.84736 | 22407 ft | 430 kts | 351° |
| 2026-05-07 16:34 | 23.52831 | 55.84052 | 21927 ft | 423 kts | 340° |
| 2026-05-07 16:34 | 23.55483 | 55.82711 | 21457 ft | 418 kts | 329° |
| 2026-05-07 16:35 | 23.57841 | 55.80883 | 21002 ft | 414 kts | 317° |
| 2026-05-07 16:35 | 23.59882 | 55.78695 | 20566 ft | 409 kts | 315° |
| 2026-05-07 16:35 | 23.61877 | 55.76493 | 20086 ft | 407 kts | 315° |
| 2026-05-07 16:35 | 23.63843 | 55.74332 | 19653 ft | 405 kts | 315° |
| 2026-05-07 16:36 | 23.65835 | 55.72158 | 19193 ft | 404 kts | 315° |
| 2026-05-07 16:36 | 23.67822 | 55.70003 | 18736 ft | 403 kts | 315° |
| 2026-05-07 16:36 | 23.69809 | 55.67856 | 18268 ft | 402 kts | 316° |
| 2026-05-07 16:36 | 23.71802 | 55.65706 | 17761 ft | 401 kts | 316° |
| 2026-05-07 16:37 | 23.73784 | 55.63570 | 17339 ft | 398 kts | 316° |
| 2026-05-07 16:37 | 23.75749 | 55.61449 | 16971 ft | 394 kts | 316° |
| 2026-05-07 16:37 | 23.77691 | 55.59354 | 16547 ft | 392 kts | 316° |
| 2026-05-07 16:37 | 23.79630 | 55.57261 | 16076 ft | 390 kts | 316° |
| 2026-05-07 16:38 | 23.81504 | 55.55172 | 15650 ft | 389 kts | 311° |
| 2026-05-07 16:38 | 23.83146 | 55.52823 | 15207 ft | 389 kts | 303° |
| 2026-05-07 16:38 | 23.84518 | 55.50281 | 14740 ft | 388 kts | 296° |
| 2026-05-07 16:38 | 23.85639 | 55.47597 | 14298 ft | 388 kts | 294° |
| 2026-05-07 16:39 | 23.86731 | 55.44896 | 13818 ft | 388 kts | 294° |
| 2026-05-07 16:39 | 23.87817 | 55.42225 | 13601 ft | 381 kts | 294° |
| 2026-05-07 16:39 | 23.88889 | 55.39607 | 13402 ft | 372 kts | 294° |
| 2026-05-07 16:39 | 23.89940 | 55.37056 | 13236 ft | 364 kts | 294° |
| 2026-05-07 16:40 | 23.90969 | 55.34566 | 13061 ft | 355 kts | 294° |
| 2026-05-07 16:40 | 23.91976 | 55.32130 | 12911 ft | 347 kts | 294° |
| 2026-05-07 16:40 | 23.92968 | 55.29783 | 12681 ft | 342 kts | 296° |
| 2026-05-07 16:40 | 23.94017 | 55.27534 | 12343 ft | 325 kts | 297° |
| 2026-05-07 16:41 | 23.95058 | 55.25367 | 11943 ft | 320 kts | 297° |
| 2026-05-07 16:41 | 23.96084 | 55.23229 | 11588 ft | 317 kts | 297° |
| 2026-05-07 16:41 | 23.97093 | 55.21109 | 11237 ft | 312 kts | 296° |
| 2026-05-07 16:41 | 23.98092 | 55.18997 | 10890 ft | 313 kts | 296° |
| 2026-05-07 16:42 | 23.99089 | 55.16882 | 10544 ft | 311 kts | 296° |
| 2026-05-07 16:42 | 24.00069 | 55.14797 | 10260 ft | 305 kts | 296° |
| 2026-05-07 16:42 | 24.01026 | 55.12759 | 10106 ft | 298 kts | 296° |
| 2026-05-07 16:42 | 24.01967 | 55.10754 | 9870 ft | 295 kts | 295° |
| 2026-05-07 16:43 | 24.02906 | 55.08752 | 9532 ft | 296 kts | 295° |
| 2026-05-07 16:43 | 24.03847 | 55.06749 | 9194 ft | 296 kts | 295° |
| 2026-05-07 16:43 | 24.04791 | 55.04742 | 8842 ft | 295 kts | 296° |
| 2026-05-07 16:43 | 24.05741 | 55.02784 | 8490 ft | 288 kts | 302° |
| 2026-05-07 16:44 | 24.07173 | 55.01310 | 8163 ft | 285 kts | 332° |
| 2026-05-07 16:44 | 24.09021 | 55.00588 | 7878 ft | 280 kts | 344° |
| 2026-05-07 16:44 | 24.10897 | 55.00011 | 7571 ft | 280 kts | 343° |
| 2026-05-07 16:44 | 24.12767 | 54.99430 | 7260 ft | 279 kts | 343° |
| 2026-05-07 16:45 | 24.14611 | 54.98852 | 6951 ft | 279 kts | 343° |
| 2026-05-07 16:45 | 24.16475 | 54.98265 | 6631 ft | 279 kts | 343° |
| 2026-05-07 16:45 | 24.18342 | 54.97674 | 6319 ft | 279 kts | 343° |
| 2026-05-07 16:45 | 24.20173 | 54.97012 | 5972 ft | 274 kts | 331° |
| 2026-05-07 16:46 | 24.21584 | 54.95683 | 5662 ft | 265 kts | 307° |
| 2026-05-07 16:46 | 24.22698 | 54.94072 | 5369 ft | 266 kts | 307° |
| 2026-05-07 16:46 | 24.23846 | 54.92459 | 5066 ft | 270 kts | 307° |
| 2026-05-07 16:46 | 24.25005 | 54.90834 | 4761 ft | 270 kts | 307° |
| 2026-05-07 16:47 | 24.26149 | 54.89234 | 4533 ft | 263 kts | 307° |
| 2026-05-07 16:47 | 24.27254 | 54.87684 | 4376 ft | 252 kts | 306° |
| 2026-05-07 16:47 | 24.28317 | 54.86193 | 4084 ft | 246 kts | 306° |
| 2026-05-07 16:47 | 24.29342 | 54.84756 | 3888 ft | 238 kts | 306° |
| 2026-05-07 16:48 | 24.30345 | 54.83351 | 3584 ft | 229 kts | 307° |
| 2026-05-07 16:48 | 24.31308 | 54.81997 | 3288 ft | 220 kts | 307° |
| 2026-05-07 16:48 | 24.32223 | 54.80714 | 3002 ft | 208 kts | 306° |
| 2026-05-07 16:48 | 24.33088 | 54.79502 | 2750 ft | 196 kts | 307° |
| 2026-05-07 16:49 | 24.33906 | 54.78353 | 2518 ft | 188 kts | 307° |
| 2026-05-07 16:49 | 24.34718 | 54.77210 | 2317 ft | 192 kts | 307° |
| 2026-05-07 16:49 | 24.35531 | 54.76064 | 2068 ft | 188 kts | 306° |
| 2026-05-07 16:49 | 24.36314 | 54.74962 | 1817 ft | 176 kts | 307° |
| 2026-05-07 16:50 | 24.37042 | 54.73939 | 1623 ft | 165 kts | 308° |
| 2026-05-07 16:50 | 24.37738 | 54.72961 | 1425 ft | 161 kts | 307° |
| 2026-05-07 16:50 | 24.38426 | 54.71992 | 1255 ft | 161 kts | 307° |
| 2026-05-07 16:50 | 24.39109 | 54.71027 | 1016 ft | 158 kts | 307° |
| 2026-05-07 16:51 | 24.39770 | 54.70102 | 838 ft | 149 kts | 308° |
| 2026-05-07 16:51 | 24.40384 | 54.69241 | 665 ft | 141 kts | 308° |
| 2026-05-07 16:51 | 24.40984 | 54.68393 | 586 ft | 142 kts | 310° |
| 2026-05-07 16:51 | 24.41619 | 54.67510 | 332 ft | 148 kts | 309° |
| 2026-05-07 16:52 | 24.42238 | 54.66625 | 115 ft | 145 kts | 309° |
| 2026-05-07 16:52 | 24.42820 | 54.65808 | 82 ft | 122 kts | 307° |
| 2026-05-07 16:52 | 24.43244 | 54.65206 | 89 ft | 77 kts | 308° |
| 2026-05-07 16:52 | 24.43485 | 54.64868 | 85 ft | 44 kts | 308° |
| 2026-05-07 16:53 | 24.43614 | 54.64685 | 83 ft | 20 kts | 307° |
| 2026-05-07 16:53 | 24.43616 | 54.64577 | 85 ft | 15 kts | 218° |
| 2026-05-07 16:53 | 24.43532 | 54.64506 | 86 ft | 14 kts | 217° |
| 2026-05-07 16:53 | 24.43489 | 54.64470 | 84 ft | 8 kts | 218° |
| 2026-05-07 16:54 | 24.43436 | 54.64424 | 86 ft | 11 kts | 218° |
| 2026-05-07 16:54 | 24.43363 | 54.64383 | 84 ft | 13 kts | 188° |
| 2026-05-07 16:54 | 24.43273 | 54.64426 | 85 ft | 15 kts | 131° |
| 2026-05-07 16:54 | 24.43207 | 54.64518 | 85 ft | 15 kts | 128° |
| 2026-05-07 16:55 | 24.43142 | 54.64610 | 86 ft | 15 kts | 128° |
| 2026-05-07 16:55 | 24.43076 | 54.64701 | 85 ft | 15 kts | 128° |
| 2026-05-07 16:55 | 24.43011 | 54.64794 | 84 ft | 15 kts | 128° |
| 2026-05-07 16:55 | 24.42946 | 54.64886 | 85 ft | 15 kts | 128° |
| 2026-05-07 16:56 | 24.42881 | 54.64978 | 85 ft | 15 kts | 128° |
| 2026-05-07 16:56 | 24.42815 | 54.65069 | 84 ft | 15 kts | 128° |
| 2026-05-07 16:56 | 24.42685 | 54.65253 | 86 ft | 15 kts | 128° |
| 2026-05-07 16:57 | 24.42625 | 54.65318 | 84 ft | 12 kts | 166° |
| 2026-05-07 16:57 | 24.42545 | 54.65318 | 84 ft | 11 kts | 145° |
| 2026-05-07 16:57 | 24.42479 | 54.65326 | 85 ft | 10 kts | 206° |
| 2026-05-07 16:57 | 24.42446 | 54.65301 | 85 ft | 0 kts | 217° |
| 2026-05-07 16:58 | 24.42446 | 54.65300 | 85 ft | 0 kts | 217° |